首页
METAR-TAF:

METAR-TAF

机场 :

帕爾馬, 西班牙

马略卡岛帕尔马机场

纬度: 39-33N, 经度: 002-44E, 海拔: 4米

当前天气观测

该预报发布于27分钟前的14:00 UTC
风速10节,风向西南
温度 19°C
湿度 60%
气压 1021 hPa
能见度10公里或以上
1500米以下无云,无积雨云

METAR: LEPA 221400Z 23010KT CAVOK 19/11 Q1021 NOSIG

时间: 15:27 (14:27 UTC)

预报

该预报发布于3小时和27分钟前的11:00 UTC
预报有效从22日的 12点(UTC)到 23日的 12点(UTC)
风速10节,风向西转西北
能见度10公里或以上
少量云层高于3000英尺
成为
从 22日的 12点(UTC)到 22日的 14点(UTC)
风速9节,风向西转西南
成为
从 22日的 22点(UTC)到 22日的 24点(UTC)
风速4节,风向多变

TAF: LEPA 221100Z 2212/2312 30010KT 9999 FEW030 TX20/2213Z TN07/2307Z BECMG 2212/2214 24009KT BECMG 2222/2224 VRB04KT

超过4000个机场的气象观测和天气预报(METAR&TAF报告)。

可查询的气象台以黄色和红色小点在地图上表示。

将鼠标移到小点上方,可查看气象台名称。

然后点击查看天气观测和预报。

如需切换地图:点击带黑十字的绿色按钮放大地图;点击带横线的绿色按钮缩小地图;或者点击绿色箭头查看邻近地区的地图。


METAR-TAF: